createdAt,value
2022-12-15T00:01:10.260Z,97082.50
2022-12-15T00:02:30.900Z,97081.69
2022-12-15T00:03:52.501Z,97079.91
2022-12-15T00:05:13.088Z,97083.44
2022-12-15T00:06:33.433Z,97076.53
2022-12-15T00:07:53.938Z,97078.28
2022-12-15T00:09:14.560Z,97080.84
2022-12-15T00:10:35.811Z,97079.09
2022-12-15T00:11:56.054Z,97080.03
2022-12-15T00:13:17.858Z,97080.03
2022-12-15T00:14:38.092Z,97088.56
2022-12-15T00:15:58.965Z,97078.41
2022-12-15T00:17:19.122Z,97091.28
2022-12-15T00:18:39.454Z,97080.97
2022-12-15T00:20:00.872Z,97084.38
2022-12-15T00:21:21.281Z,97092.09
2022-12-15T00:22:41.548Z,97093.84
2022-12-15T00:24:02.188Z,97098.97
2022-12-15T00:25:23.019Z,97100.75
2022-12-15T00:26:43.515Z,97103.41
2022-12-15T00:28:03.812Z,97103.31
2022-12-15T00:29:24.069Z,97107.63
2022-12-15T00:30:44.373Z,97103.41
2022-12-15T00:32:10.081Z,97109.41
2022-12-15T00:33:30.771Z,97109.41
2022-12-15T00:34:51.675Z,97111.03
2022-12-15T00:36:13.308Z,97108.47
2022-12-15T00:37:33.761Z,97112.78
2022-12-15T00:38:45.400Z,97111.97
2022-12-15T00:39:58.576Z,97120.50
2022-12-15T00:41:01.388Z,97115.34
2022-12-15T00:42:04.241Z,97117.94
2022-12-15T00:43:06.194Z,97131.50
2022-12-15T00:44:09.107Z,97126.34
2022-12-15T00:45:11.275Z,97127.97
2022-12-15T00:46:31.988Z,97129.59
2022-12-15T00:47:34.825Z,97132.19
2022-12-15T00:48:36.645Z,97132.19
2022-12-15T00:49:57.175Z,97127.88
2022-12-15T00:51:01.394Z,97133.84
2022-12-15T00:52:21.917Z,97131.28
2022-12-15T00:53:43.389Z,97132.19
2022-12-15T00:55:03.647Z,97142.47
2022-12-15T00:56:24.299Z,97144.22
2022-12-15T00:57:44.513Z,97148.56
2022-12-15T00:59:04.810Z,97135.69
2022-12-15T01:00:26.680Z,97140.97
2022-12-15T01:01:49.819Z,97140.16
2022-12-15T01:03:10.213Z,97141.78
2022-12-15T01:04:30.898Z,97140.16
2022-12-15T01:05:51.735Z,97142.72
2022-12-15T01:07:13.840Z,97141.06
2022-12-15T01:08:34.039Z,97142.00
2022-12-15T01:09:54.538Z,97140.34
2022-12-15T01:11:18.709Z,97141.16
2022-12-15T01:12:39.325Z,97142.94
2022-12-15T01:13:59.526Z,97146.44
2022-12-15T01:15:20.047Z,97144.69
2022-12-15T01:16:40.413Z,97149.00
2022-12-15T01:18:00.753Z,97146.44
2022-12-15T01:19:20.837Z,97148.19
2022-12-15T01:20:23.614Z,97150.75
2022-12-15T01:21:25.727Z,97146.44
2022-12-15T01:22:29.949Z,97154.03
2022-12-15T01:23:33.122Z,97151.38
2022-12-15T01:24:36.439Z,97154.84
2022-12-15T01:25:38.725Z,97149.69
2022-12-15T01:26:41.556Z,97153.00
2022-12-15T01:27:43.710Z,97154.75
2022-12-15T01:28:46.591Z,97153.00
2022-12-15T01:29:48.559Z,97155.56
2022-12-15T01:30:52.049Z,97157.09
2022-12-15T01:31:54.063Z,97158.03
2022-12-15T01:32:57.054Z,97157.22
2022-12-15T01:33:58.891Z,97149.50
2022-12-15T01:35:01.688Z,97158.84
2022-12-15T01:36:04.325Z,97157.91
2022-12-15T01:37:07.096Z,97155.34
2022-12-15T01:38:10.531Z,97155.34
2022-12-15T01:39:13.801Z,97163.06
2022-12-15T01:40:37.334Z,97163.06
2022-12-15T01:41:39.102Z,97162.34
2022-12-15T01:42:40.939Z,97161.53
2022-12-15T01:43:43.696Z,97164.94
2022-12-15T01:44:49.313Z,97167.50
2022-12-15T01:45:55.205Z,97160.72
2022-12-15T01:46:58.074Z,97162.34
2022-12-15T01:48:03.281Z,97162.47
2022-12-15T01:49:15.134Z,97165.88
2022-12-15T01:50:17.817Z,97161.66
2022-12-15T01:51:25.605Z,97166.81
2022-12-15T01:52:27.545Z,97166.81
2022-12-15T01:53:34.927Z,97173.69
2022-12-15T01:54:41.368Z,97175.34
2022-12-15T01:55:44.527Z,97167.63
2022-12-15T01:56:52.363Z,97171.00
2022-12-15T01:57:56.215Z,97184.81
2022-12-15T01:59:01.372Z,97184.00
2022-12-15T02:00:07.331Z,97170.28
2022-12-15T02:01:09.841Z,97182.31
2022-12-15T02:02:13.783Z,97183.16
2022-12-15T02:03:15.823Z,97177.19
2022-12-15T02:04:19.529Z,97175.44
2022-12-15T02:05:22.123Z,97188.28
2022-12-15T02:06:26.173Z,97179.75
2022-12-15T02:07:28.010Z,97181.50
2022-12-15T02:08:32.920Z,97183.25
2022-12-15T02:09:34.779Z,97192.72
2022-12-15T02:10:46.642Z,97186.66
2022-12-15T02:12:00.428Z,97191.81
2022-12-15T02:13:07.281Z,97189.34
2022-12-15T02:14:11.293Z,97185.03
2022-12-15T02:15:19.596Z,97185.03
2022-12-15T02:16:28.666Z,97191.81
2022-12-15T02:17:36.599Z,97185.84
2022-12-15T02:18:48.049Z,97194.38
2022-12-15T02:20:20.925Z,97195.19
2022-12-15T02:21:30.897Z,97204.78
2022-12-15T02:22:41.804Z,97207.22
2022-12-15T02:24:24.144Z,97196.25
2022-12-15T02:25:45.219Z,97202.53
2022-12-15T02:27:16.959Z,97202.66
2022-12-15T02:28:28.562Z,97202.78
2022-12-15T02:29:41.724Z,97207.91
2022-12-15T02:31:11.517Z,97208.00
2022-12-15T02:32:16.242Z,97218.28
2022-12-15T02:33:21.580Z,97218.28
2022-12-15T02:34:28.602Z,97220.88
2022-12-15T02:35:37.864Z,97226.81
2022-12-15T02:36:43.336Z,97216.66
2022-12-15T02:37:45.231Z,97226.81
2022-12-15T02:38:52.717Z,97221.69
2022-12-15T02:39:54.524Z,97227.63
2022-12-15T02:40:59.526Z,97224.16
2022-12-15T02:42:01.320Z,97225.91
2022-12-15T02:43:06.398Z,97230.94
2022-12-15T02:44:11.009Z,97233.50
2022-12-15T02:45:15.915Z,97234.44
2022-12-15T02:46:23.908Z,97238.78
2022-12-15T02:47:32.585Z,97233.63
2022-12-15T02:48:40.743Z,97238.88
2022-12-15T02:49:50.581Z,97240.63
2022-12-15T02:51:04.826Z,97238.97
2022-12-15T02:52:15.011Z,97246.81
2022-12-15T02:53:29.438Z,97241.66
2022-12-15T02:54:48.930Z,97243.50
2022-12-15T02:55:56.928Z,97239.19
2022-12-15T02:57:06.229Z,97244.34
2022-12-15T02:58:12.907Z,97238.38
2022-12-15T02:59:20.267Z,97243.50
2022-12-15T03:00:22.830Z,97241.88
2022-12-15T03:01:32.093Z,97241.06
2022-12-15T03:02:35.329Z,97245.38
2022-12-15T03:03:39.745Z,97238.59
2022-12-15T03:04:42.911Z,97242.81
2022-12-15T03:05:45.959Z,97245.38
2022-12-15T03:07:00.408Z,97251.34
2022-12-15T03:08:04.045Z,97248.78
2022-12-15T03:09:05.923Z,97245.25
2022-12-15T03:10:10.142Z,97252.88
2022-12-15T03:11:12.053Z,97245.25
2022-12-15T03:12:15.287Z,97247.72
2022-12-15T03:13:17.095Z,97248.66
2022-12-15T03:14:21.056Z,97247.72
2022-12-15T03:15:22.890Z,97249.47
2022-12-15T03:16:27.105Z,97246.91
2022-12-15T03:17:28.889Z,97246.09
2022-12-15T03:18:31.649Z,97245.25
2022-12-15T03:19:33.423Z,97247.84
2022-12-15T03:20:36.198Z,97237.56
2022-12-15T03:21:38.031Z,97247.84
2022-12-15T03:22:41.150Z,97250.41
2022-12-15T03:23:43.086Z,97246.09
2022-12-15T03:24:46.051Z,97254.72
2022-12-15T03:25:49.934Z,97256.50
2022-12-15T03:26:53.286Z,97259.06
2022-12-15T03:27:55.142Z,97262.44
2022-12-15T03:28:57.884Z,97265.84
2022-12-15T03:29:59.688Z,97271.91
2022-12-15T03:31:02.837Z,97272.72
2022-12-15T03:32:06.547Z,97275.31
2022-12-15T03:33:09.816Z,97279.63
2022-12-15T03:34:12.565Z,97278.81
2022-12-15T03:35:15.427Z,97275.41
2022-12-15T03:36:17.312Z,97284.78
2022-12-15T03:37:20.174Z,97285.72
2022-12-15T03:38:22.168Z,97280.56
2022-12-15T03:39:25.043Z,97276.25
2022-12-15T03:40:26.944Z,97281.38
2022-12-15T03:41:29.766Z,97277.06
2022-12-15T03:42:49.925Z,97277.06
2022-12-15T03:43:52.711Z,97276.25
2022-12-15T03:44:54.474Z,97278.00
2022-12-15T03:45:57.471Z,97282.19
2022-12-15T03:47:03.301Z,97284.78
2022-12-15T03:48:08.133Z,97281.38
2022-12-15T03:49:09.951Z,97286.53
2022-12-15T03:50:15.365Z,97285.72
2022-12-15T03:51:18.129Z,97284.06
2022-12-15T03:52:19.902Z,97289.09
2022-12-15T03:53:22.997Z,97288.28
2022-12-15T03:54:25.174Z,97285.72
2022-12-15T03:55:29.164Z,97290.84
2022-12-15T03:56:31.002Z,97292.50
2022-12-15T03:57:33.719Z,97295.06
2022-12-15T03:58:35.521Z,97295.88
2022-12-15T03:59:57.185Z,97295.88
2022-12-15T04:00:59.064Z,97295.75
2022-12-15T04:02:02.042Z,97300.09
2022-12-15T04:03:04.235Z,97300.91
2022-12-15T04:04:08.395Z,97308.63
2022-12-15T04:05:14.162Z,97300.91
2022-12-15T04:06:17.227Z,97305.22
2022-12-15T04:07:19.043Z,97308.63
2022-12-15T04:08:26.582Z,97305.97
2022-12-15T04:09:28.546Z,97309.44
2022-12-15T04:10:34.642Z,97304.22
2022-12-15T04:11:36.748Z,97306.78
2022-12-15T04:12:40.495Z,97311.00
2022-12-15T04:13:42.305Z,97310.19
2022-12-15T04:14:45.026Z,97306.66
2022-12-15T04:15:46.929Z,97316.13
2022-12-15T04:16:49.800Z,97307.50
2022-12-15T04:17:51.672Z,97305.84
2022-12-15T04:19:08.365Z,97309.34
2022-12-15T04:20:12.962Z,97320.59
2022-12-15T04:21:16.088Z,97316.25
2022-12-15T04:22:18.244Z,97318.72
2022-12-15T04:23:21.006Z,97325.50
2022-12-15T04:24:41.282Z,97318.59
2022-12-15T04:26:01.881Z,97330.63
2022-12-15T04:27:22.395Z,97326.63
2022-12-15T04:28:42.603Z,97328.38
2022-12-15T04:30:02.812Z,97332.81
2022-12-15T04:31:27.325Z,97320.91
2022-12-15T04:32:49.971Z,97339.81
2022-12-15T04:34:12.372Z,97341.56
2022-12-15T04:35:34.210Z,97336.53
2022-12-15T04:36:54.790Z,97338.38
2022-12-15T04:38:15.268Z,97340.22
2022-12-15T04:39:36.389Z,97343.72
2022-12-15T04:40:56.702Z,97345.47
2022-12-15T04:42:19.036Z,97348.88
2022-12-15T04:43:39.283Z,97349.69
2022-12-15T04:45:21.321Z,97342.91
2022-12-15T04:46:41.736Z,97348.88
2022-12-15T04:48:01.871Z,97346.31
2022-12-15T04:49:22.200Z,97352.16
2022-12-15T04:50:43.603Z,97349.56
2022-12-15T04:52:03.867Z,97357.22
2022-12-15T04:53:28.289Z,97358.03
2022-12-15T04:54:49.392Z,97360.59
2022-12-15T04:56:12.542Z,97361.41
2022-12-15T04:57:36.849Z,97361.41
2022-12-15T04:58:57.119Z,97371.59
2022-12-15T05:00:17.542Z,97372.41
2022-12-15T05:01:37.702Z,97370.66
2022-12-15T05:02:57.931Z,97374.06
2022-12-15T05:04:18.231Z,97378.28
2022-12-15T05:05:38.363Z,97383.44
2022-12-15T05:06:59.858Z,97380.75
2022-12-15T05:08:21.109Z,97380.75
2022-12-15T05:09:41.363Z,97377.25
2022-12-15T05:11:01.661Z,97391.84
2022-12-15T05:12:22.338Z,97385.78
2022-12-15T05:13:43.044Z,97390.03
2022-12-15T05:15:03.242Z,97390.03
2022-12-15T05:16:24.661Z,97395.97
2022-12-15T05:17:44.893Z,97394.13
2022-12-15T05:19:05.754Z,97400.91
2022-12-15T05:20:26.362Z,97397.41
2022-12-15T05:21:46.548Z,97399.16
2022-12-15T05:23:13.097Z,97399.88
2022-12-15T05:24:33.504Z,97405.03
2022-12-15T05:25:53.796Z,97405.84
2022-12-15T05:27:13.875Z,97414.25
2022-12-15T05:28:33.923Z,97407.38
2022-12-15T05:29:54.308Z,97415.91
2022-12-15T05:31:14.632Z,97416.75
2022-12-15T05:32:17.570Z,97416.75
2022-12-15T05:33:19.359Z,97425.19
2022-12-15T05:34:23.026Z,97426.81
2022-12-15T05:35:25.240Z,97431.03
2022-12-15T05:36:28.111Z,97437.72
2022-12-15T05:37:29.950Z,97437.72
2022-12-15T05:38:34.117Z,97443.59
2022-12-15T05:39:37.163Z,97448.63
2022-12-15T05:40:39.119Z,97450.28
2022-12-15T05:41:42.851Z,97450.16
2022-12-15T05:42:44.603Z,97440.81
2022-12-15T05:43:52.743Z,97447.47
2022-12-15T05:44:55.929Z,97445.66
2022-12-15T05:46:03.039Z,97445.72
2022-12-15T05:47:05.973Z,97443.91
2022-12-15T05:48:08.142Z,97448.09
2022-12-15T05:49:13.750Z,97447.28
2022-12-15T05:50:15.666Z,97443.91
2022-12-15T05:51:18.640Z,97442.03
2022-12-15T05:52:20.387Z,97451.50
2022-12-15T05:53:23.197Z,97448.81
2022-12-15T05:54:27.813Z,97450.47
2022-12-15T05:55:29.588Z,97453.88
2022-12-15T05:56:32.351Z,97457.28
2022-12-15T05:57:34.427Z,97458.78
2022-12-15T05:58:44.578Z,97457.16
2022-12-15T05:59:48.098Z,97459.72
2022-12-15T06:00:49.918Z,97458.09
2022-12-15T06:01:52.703Z,97456.22
2022-12-15T06:02:54.700Z,97469.09
2022-12-15T06:03:57.991Z,97470.84
2022-12-15T06:05:00.836Z,97467.34
2022-12-15T06:06:02.988Z,97472.47
2022-12-15T06:07:05.834Z,97479.38
2022-12-15T06:08:07.627Z,97474.22
2022-12-15T06:09:10.873Z,97480.31
2022-12-15T06:10:14.204Z,97495.75
2022-12-15T06:11:18.247Z,97492.34
2022-12-15T06:12:20.990Z,97497.38
2022-12-15T06:13:23.519Z,97496.56
2022-12-15T06:14:26.371Z,97497.38
2022-12-15T06:15:28.657Z,97494.81
2022-12-15T06:16:31.791Z,97489.66
2022-12-15T06:17:33.651Z,97500.09
2022-12-15T06:18:38.333Z,97501.72
2022-12-15T06:19:40.390Z,97510.25
2022-12-15T06:20:43.140Z,97508.63
2022-12-15T06:21:46.411Z,97501.59
2022-12-15T06:22:50.115Z,97505.94
2022-12-15T06:23:53.262Z,97506.75
2022-12-15T06:24:55.044Z,97505.84
2022-12-15T06:26:00.117Z,97511.81
2022-12-15T06:27:03.099Z,97517.78
2022-12-15T06:28:05.147Z,97522.19
2022-12-15T06:29:09.742Z,97534.16
2022-12-15T06:30:12.285Z,97534.16
2022-12-15T06:31:15.641Z,97539.31
2022-12-15T06:32:18.685Z,97545.34
2022-12-15T06:33:22.005Z,97552.16
2022-12-15T06:34:24.804Z,97554.81
2022-12-15T06:35:26.747Z,97546.22
2022-12-15T06:36:30.585Z,97548.66
2022-12-15T06:37:32.489Z,97547.03
2022-12-15T06:38:36.234Z,97551.13
2022-12-15T06:39:38.492Z,97554.53
2022-12-15T06:40:41.571Z,97551.94
2022-12-15T06:41:46.009Z,97556.28
2022-12-15T06:42:47.821Z,97564.81
2022-12-15T06:43:51.635Z,97570.78
2022-12-15T06:44:54.512Z,97569.88
2022-12-15T06:45:56.455Z,97565.63
2022-12-15T06:46:59.311Z,97565.63
2022-12-15T06:48:01.814Z,97573.34
2022-12-15T06:49:04.793Z,97559.59
2022-12-15T06:50:07.804Z,97566.38
2022-12-15T06:51:16.600Z,97560.41
2022-12-15T06:52:19.169Z,97562.97
2022-12-15T06:53:23.945Z,97558.66
2022-12-15T06:54:26.795Z,97555.25
2022-12-15T06:55:28.573Z,97554.44
2022-12-15T06:56:35.983Z,97562.25
2022-12-15T06:57:40.230Z,97561.31
2022-12-15T06:58:42.137Z,97566.47
2022-12-15T06:59:45.171Z,97563.06
2022-12-15T07:00:47.036Z,97574.19
2022-12-15T07:01:49.953Z,97566.47
2022-12-15T07:02:51.973Z,97570.72
2022-12-15T07:03:55.989Z,97571.59
2022-12-15T07:04:57.962Z,97572.47
2022-12-15T07:06:05.478Z,97582.75
2022-12-15T07:07:09.768Z,97589.63
2022-12-15T07:08:12.111Z,97581.00
2022-12-15T07:09:17.395Z,97583.66
2022-12-15T07:10:19.338Z,97591.38
2022-12-15T07:11:22.992Z,97591.47
2022-12-15T07:12:24.833Z,97601.78
2022-12-15T07:13:29.524Z,97606.94
2022-12-15T07:14:32.698Z,97606.94
2022-12-15T07:15:34.516Z,97611.25
2022-12-15T07:16:38.034Z,97615.59
2022-12-15T07:17:40.294Z,97611.38
2022-12-15T07:18:43.044Z,97607.97
2022-12-15T07:19:44.849Z,97626.69
2022-12-15T07:20:47.743Z,97633.59
2022-12-15T07:21:52.925Z,97629.38
2022-12-15T07:22:56.367Z,97628.44
2022-12-15T07:23:58.959Z,97637.91
2022-12-15T07:25:02.482Z,97634.53
2022-12-15T07:26:11.128Z,97638.75
2022-12-15T07:27:14.434Z,97642.25
2022-12-15T07:28:18.966Z,97647.41
2022-12-15T07:29:44.112Z,97651.72
2022-12-15T07:30:46.328Z,97654.28
2022-12-15T07:31:49.271Z,97658.59
2022-12-15T07:32:51.620Z,97652.63
2022-12-15T07:33:55.080Z,97667.16
2022-12-15T07:34:58.254Z,97663.72
2022-12-15T07:36:00.708Z,97658.59
2022-12-15T07:37:03.700Z,97656.00
2022-12-15T07:38:07.020Z,97664.59
2022-12-15T07:39:10.463Z,97659.44
2022-12-15T07:40:13.607Z,97649.16
2022-12-15T07:41:15.417Z,97649.97
2022-12-15T07:42:18.270Z,97661.09
2022-12-15T07:43:21.261Z,97657.69
2022-12-15T07:44:24.272Z,97661.09
2022-12-15T07:45:27.637Z,97667.06
2022-12-15T07:46:31.083Z,97677.34
2022-12-15T07:47:33.403Z,97680.75
2022-12-15T07:48:37.064Z,97673.84
2022-12-15T07:49:39.985Z,97679.91
2022-12-15T07:50:41.796Z,97689.28
2022-12-15T07:51:44.976Z,97674.56
2022-12-15T07:52:47.867Z,97675.47
2022-12-15T07:53:51.687Z,97679.69
2022-12-15T07:54:54.776Z,97684.78
2022-12-15T07:56:07.375Z,97670.16
2022-12-15T07:57:10.607Z,97680.44
2022-12-15T07:58:13.319Z,97682.09
2022-12-15T07:59:17.089Z,97678.69
2022-12-15T08:00:20.616Z,97673.44
2022-12-15T08:01:25.304Z,97675.94
2022-12-15T08:02:27.419Z,97681.06
2022-12-15T08:03:31.119Z,97680.22
2022-12-15T08:04:34.489Z,97674.19
2022-12-15T08:06:02.052Z,97671.78
2022-12-15T08:07:06.835Z,97674.38
2022-12-15T08:08:15.140Z,97683.72
2022-12-15T08:09:19.035Z,97679.41
2022-12-15T08:10:20.828Z,97681.16
2022-12-15T08:11:25.045Z,97682.72
2022-12-15T08:12:27.230Z,97691.25
2022-12-15T08:14:00.646Z,97691.16
2022-12-15T08:14:52.755Z,97689.50
2022-12-15T08:15:55.827Z,97698.06
2022-12-15T08:17:00.075Z,97697.22
2022-12-15T08:18:02.082Z,97702.38
2022-12-15T08:19:06.270Z,97701.44
2022-12-15T08:20:10.207Z,97700.53
2022-12-15T08:21:14.617Z,97710.81
2022-12-15T08:22:17.386Z,97711.75
2022-12-15T08:23:20.134Z,97719.34
2022-12-15T08:24:23.397Z,97718.47
2022-12-15T08:25:25.474Z,97714.13
2022-12-15T08:26:31.061Z,97723.59
2022-12-15T08:27:34.330Z,97723.59
2022-12-15T08:28:37.811Z,97724.50
2022-12-15T08:29:56.874Z,97732.16
2022-12-15T08:31:03.942Z,97727.94
2022-12-15T08:32:08.491Z,97736.47
2022-12-15T08:33:11.932Z,97739.06
2022-12-15T08:34:13.786Z,97745.84
2022-12-15T08:35:46.823Z,97742.44
2022-12-15T08:36:39.502Z,97742.44
2022-12-15T08:37:41.539Z,97731.34
2022-12-15T08:38:45.466Z,97745.75
2022-12-15T08:39:48.192Z,97738.84
2022-12-15T08:40:50.003Z,97744.81
2022-12-15T08:41:52.824Z,97743.06
2022-12-15T08:42:54.569Z,97740.41
2022-12-15T08:43:58.528Z,97741.22
2022-12-15T08:45:01.300Z,97742.88
2022-12-15T08:46:03.597Z,97746.25
2022-12-15T08:47:26.768Z,97741.22
2022-12-15T08:48:28.553Z,97746.25
2022-12-15T08:49:31.711Z,97752.25
2022-12-15T08:50:33.822Z,97748.84
2022-12-15T08:51:36.743Z,97751.31
2022-12-15T08:52:55.340Z,97749.56
2022-12-15T08:54:23.654Z,97752.34
2022-12-15T08:55:26.449Z,97753.16
2022-12-15T08:56:29.119Z,97754.00
2022-12-15T08:57:31.940Z,97749.66
2022-12-15T08:58:35.103Z,97754.81
2022-12-15T08:59:37.842Z,97746.16
2022-12-15T09:00:40.735Z,97747.84
2022-12-15T09:01:43.664Z,97747.84
2022-12-15T09:02:48.015Z,97749.47
2022-12-15T09:03:50.592Z,97749.47
2022-12-15T09:05:11.791Z,97745.25
2022-12-15T09:06:15.822Z,97749.47
2022-12-15T09:07:18.572Z,97747.72
2022-12-15T09:08:22.285Z,97749.47
2022-12-15T09:09:25.050Z,97755.44
2022-12-15T09:10:27.848Z,97759.66
2022-12-15T09:11:30.976Z,97754.53
2022-12-15T09:12:33.787Z,97756.97
2022-12-15T09:13:36.112Z,97761.31
2022-12-15T09:14:39.249Z,97758.75
2022-12-15T09:16:08.295Z,97770.78
2022-12-15T09:17:06.160Z,97765.63
2022-12-15T09:18:09.432Z,97762.25
2022-12-15T09:19:12.714Z,97767.28
2022-12-15T09:20:17.818Z,97762.13
2022-12-15T09:21:23.215Z,97760.50
2022-12-15T09:22:26.060Z,97765.63
2022-12-15T09:23:29.519Z,97768.22
2022-12-15T09:24:35.025Z,97766.56
2022-12-15T09:25:37.553Z,97771.00
2022-12-15T09:26:40.702Z,97769.25
2022-12-15T09:27:43.438Z,97764.09
2022-12-15T09:28:45.422Z,97759.78
2022-12-15T09:29:53.514Z,97762.34
2022-12-15T09:30:55.448Z,97765.63
2022-12-15T09:31:58.278Z,97760.59
2022-12-15T09:33:01.170Z,97768.22
2022-12-15T09:34:05.291Z,97778.41
2022-12-15T09:35:08.669Z,97775.84
2022-12-15T09:36:11.727Z,97768.03
2022-12-15T09:37:14.522Z,97766.38
2022-12-15T09:38:16.403Z,97775.75
2022-12-15T09:39:19.478Z,97763.81
2022-12-15T09:40:21.266Z,97765.44
2022-12-15T09:41:27.216Z,97776.56
2022-12-15T09:42:31.817Z,97764.53
2022-12-15T09:43:35.219Z,97769.69
2022-12-15T09:44:39.514Z,97778.34
2022-12-15T09:45:44.609Z,97788.53
2022-12-15T09:46:56.348Z,97785.94
2022-12-15T09:48:03.144Z,97792.97
2022-12-15T09:49:16.234Z,97786.97
2022-12-15T09:50:21.228Z,97792.13
2022-12-15T09:51:29.534Z,97786.13
2022-12-15T09:52:34.302Z,97789.63
2022-12-15T09:55:01.603Z,97794.91
2022-12-15T09:56:08.237Z,97792.31
2022-12-15T09:57:17.898Z,97793.25
2022-12-15T09:58:32.078Z,97803.44
2022-12-15T09:59:40.537Z,97799.13
2022-12-15T10:00:52.207Z,97800.88
2022-12-15T10:02:05.024Z,97806.13
2022-12-15T10:03:35.566Z,97810.44
2022-12-15T10:04:45.192Z,97801.97
2022-12-15T10:06:19.230Z,97801.16
2022-12-15T10:07:29.809Z,97799.50
2022-12-15T10:08:33.880Z,97796.00
2022-12-15T10:09:38.043Z,97791.69
2022-12-15T10:10:44.351Z,97791.59
2022-12-15T10:11:50.930Z,97787.28
2022-12-15T10:13:01.998Z,97790.69
2022-12-15T10:14:12.347Z,97798.28
2022-12-15T10:15:21.212Z,97800.03
2022-12-15T10:16:26.780Z,97799.13
2022-12-15T10:17:44.472Z,97802.63
2022-12-15T10:19:01.186Z,97798.41
2022-12-15T10:20:09.169Z,97802.63
2022-12-15T10:21:14.222Z,97811.16
2022-12-15T10:22:21.030Z,97805.91
2022-12-15T10:23:25.027Z,97805.91
2022-12-15T10:25:09.270Z,97793.78
2022-12-15T10:26:00.341Z,97797.19
2022-12-15T10:27:08.010Z,97794.59
2022-12-15T10:28:23.091Z,97787.59
2022-12-15T10:29:34.261Z,97796.13
2022-12-15T10:30:38.240Z,97789.22
2022-12-15T10:31:45.684Z,97786.59
2022-12-15T10:32:52.044Z,97788.22
2022-12-15T10:33:57.150Z,97785.53
2022-12-15T10:35:00.386Z,97784.72
2022-12-15T10:36:08.760Z,97775.97
2022-12-15T10:37:15.028Z,97776.81
2022-12-15T10:38:25.698Z,97780.19
2022-12-15T10:39:38.401Z,97785.34
2022-12-15T10:40:50.840Z,97787.94
2022-12-15T10:42:15.248Z,97780.19
2022-12-15T10:43:27.351Z,97779.47
2022-12-15T10:44:38.210Z,97784.63
2022-12-15T10:45:41.603Z,97782.88
2022-12-15T10:47:10.312Z,97784.72
2022-12-15T10:48:20.337Z,97777.00
2022-12-15T10:49:23.939Z,97779.56
2022-12-15T10:50:27.667Z,97780.38
2022-12-15T10:51:32.724Z,97779.47
2022-12-15T10:52:37.324Z,97785.47
2022-12-15T10:53:42.741Z,97767.44
2022-12-15T10:54:47.240Z,97774.22
2022-12-15T10:56:00.727Z,97770.72
2022-12-15T10:57:17.360Z,97775.06
2022-12-15T10:58:21.777Z,97780.19
2022-12-15T10:59:26.702Z,97780.19
2022-12-15T11:00:30.294Z,97791.31
2022-12-15T11:01:35.710Z,97797.31
2022-12-15T11:02:39.120Z,97793.78
2022-12-15T11:03:41.815Z,97806.66
2022-12-15T11:04:55.863Z,97804.09
2022-12-15T11:05:58.739Z,97804.09
2022-12-15T11:07:04.615Z,97797.31
2022-12-15T11:08:15.530Z,97810.06
2022-12-15T11:09:28.459Z,97808.44
2022-12-15T11:10:53.167Z,97806.78
2022-12-15T11:12:13.356Z,97807.72
2022-12-15T11:13:16.806Z,97812.94
2022-12-15T11:14:24.019Z,97812.13
2022-12-15T11:15:47.145Z,97811.22
2022-12-15T11:16:55.279Z,97817.25
2022-12-15T11:18:01.596Z,97817.25
2022-12-15T11:19:10.572Z,97816.38
2022-12-15T11:20:19.319Z,97816.38
2022-12-15T11:21:25.729Z,97812.03
2022-12-15T11:22:36.195Z,97816.25
2022-12-15T11:23:59.174Z,97819.75
2022-12-15T11:25:06.335Z,97818.94
2022-12-15T11:26:18.073Z,97824.09
2022-12-15T11:27:26.083Z,97830.97
2022-12-15T11:28:34.739Z,97829.25
2022-12-15T11:29:46.912Z,97836.97
2022-12-15T11:30:55.493Z,97839.56
2022-12-15T11:32:03.198Z,97836.97
2022-12-15T11:33:10.659Z,97838.69
2022-12-15T11:34:14.602Z,97840.38
2022-12-15T11:35:20.585Z,97839.56
2022-12-15T11:37:07.988Z,97830.88
2022-12-15T11:38:20.330Z,97831.06
2022-12-15T11:39:42.972Z,97836.22
2022-12-15T11:40:45.792Z,97834.59
2022-12-15T11:41:53.765Z,97831.06
2022-12-15T11:43:05.671Z,97836.22
2022-12-15T11:44:24.393Z,97830.16
2022-12-15T11:45:32.510Z,97844.69
2022-12-15T11:46:40.517Z,97839.56
2022-12-15T11:47:46.355Z,97835.41
2022-12-15T11:49:09.047Z,97838.69
2022-12-15T11:50:27.884Z,97838.69
2022-12-15T11:51:40.425Z,97834.47
2022-12-15T11:52:55.077Z,97837.97
2022-12-15T11:54:14.680Z,97836.22
2022-12-15T11:55:25.774Z,97832.81
2022-12-15T11:56:35.342Z,97841.47
2022-12-15T11:57:57.204Z,97841.38
2022-12-15T11:59:36.440Z,97844.88
2022-12-15T12:00:42.277Z,97843.25
2022-12-15T12:02:03.038Z,97848.38
2022-12-15T12:03:19.103Z,97859.63
2022-12-15T12:04:23.667Z,97860.44
2022-12-15T12:05:46.803Z,97857.88
2022-12-15T12:06:58.559Z,97859.50
2022-12-15T12:08:11.779Z,97857.88
2022-12-15T12:09:26.180Z,97859.50
2022-12-15T12:10:32.808Z,97861.25
2022-12-15T12:11:41.536Z,97863.84
2022-12-15T12:12:46.478Z,97862.09
2022-12-15T12:14:11.759Z,97865.47
2022-12-15T12:15:23.985Z,97868.06
2022-12-15T12:16:33.190Z,97861.25
2022-12-15T12:17:42.262Z,97859.63
2022-12-15T12:18:50.546Z,97859.50
2022-12-15T12:19:55.514Z,97867.25
2022-12-15T12:21:01.160Z,97868.06
2022-12-15T12:22:06.793Z,97856.94
2022-12-15T12:23:15.995Z,97863.63
2022-12-15T12:24:24.427Z,97862.72
2022-12-15T12:25:27.775Z,97858.41
2022-12-15T12:26:33.811Z,97858.41
2022-12-15T12:27:41.278Z,97856.66
2022-12-15T12:28:48.670Z,97854.91
2022-12-15T12:29:58.851Z,97850.66
2022-12-15T12:31:03.933Z,97853.13
2022-12-15T12:32:12.982Z,97846.34
2022-12-15T12:33:21.646Z,97850.56
2022-12-15T12:34:29.904Z,97848.00
2022-12-15T12:35:38.684Z,97848.00
2022-12-15T12:36:42.317Z,97846.34
2022-12-15T12:38:01.178Z,97840.25
2022-12-15T12:39:06.779Z,97841.19
2022-12-15T12:40:19.254Z,97839.56
2022-12-15T12:41:27.408Z,97841.19
2022-12-15T12:42:35.740Z,97851.50
2022-12-15T12:43:40.258Z,97850.66
2022-12-15T12:44:43.008Z,97851.50
2022-12-15T12:45:50.204Z,97848.91
2022-12-15T12:47:17.369Z,97849.84
2022-12-15T12:48:31.993Z,97845.53
2022-12-15T12:49:39.017Z,97841.38
2022-12-15T12:50:42.591Z,97843.84
2022-12-15T12:51:51.655Z,97841.28
2022-12-15T12:52:55.873Z,97849.84
2022-12-15T12:53:59.247Z,97853.25
2022-12-15T12:55:08.125Z,97849.00
2022-12-15T12:56:40.586Z,97849.09
2022-12-15T12:57:44.069Z,97848.28
2022-12-15T12:58:48.527Z,97848.28
2022-12-15T12:59:56.653Z,97846.53
2022-12-15T13:01:15.812Z,97852.50
2022-12-15T13:02:50.591Z,97855.19
2022-12-15T13:04:10.715Z,97857.88
2022-12-15T13:05:27.770Z,97864.75
2022-12-15T13:06:58.692Z,97873.38
2022-12-15T13:08:34.978Z,97866.69
2022-12-15T13:09:40.560Z,97871.09
2022-12-15T13:10:43.420Z,97864.22
2022-12-15T13:11:58.767Z,97865.06
2022-12-15T13:13:17.582Z,97859.09
2022-12-15T13:14:26.110Z,97855.66
2022-12-15T13:15:37.307Z,97857.34
2022-12-15T13:16:40.517Z,97854.75
2022-12-15T13:18:00.297Z,97863.38
2022-12-15T13:19:04.526Z,97860.72
2022-12-15T13:20:26.878Z,97855.56
2022-12-15T13:22:02.604Z,97855.66
2022-12-15T13:23:37.436Z,97857.41
2022-12-15T13:24:42.894Z,97862.66
2022-12-15T13:25:53.631Z,97863.59
2022-12-15T13:27:11.009Z,97871.31
2022-12-15T13:28:20.258Z,97855.88
2022-12-15T13:29:23.551Z,97867.81
2022-12-15T13:30:26.740Z,97859.25